Time;durP1;ratioP1;P1;durP2;ratioP2;P2;SDS_P1;SDS_P2;PMS_P1;PMS_P2;Temp;Humidity;BMP_temperature;BMP_pressure;BME280_temperature;BME280_humidity;BME280_pressure;Samples;Min_cycle;Max_cycle;Signal;HPM_P1;HPM_P2
2024/03/31 00:00:37;;;;;;;17.10;3.50;;;;;;;12.18;60.19;95682.38;108333;1271;22523;-74
2024/03/31 00:03:30;;;;;;;19.80;3.30;;;;;;;12.22;60.30;95685.12;108337;1275;24172;-74
2024/03/31 00:06:03;;;;;;;12.70;3.10;;;;;;;12.19;60.17;95690.69;108320;1279;24210;-74
2024/03/31 00:08:37;;;;;;;13.40;3.30;;;;;;;12.20;60.61;95679.27;108379;1278;22558;-74
2024/03/31 00:11:11;;;;;;;14.30;3.40;;;;;;;12.35;60.65;95681.86;108434;1271;25554;-74
2024/03/31 00:13:44;;;;;;;22.90;4.20;;;;;;;12.25;60.41;95679.60;108386;1270;22524;-74
2024/03/31 00:16:16;;;;;;;14.50;3.20;;;;;;;12.26;60.59;95679.79;108364;1278;26439;-74
2024/03/31 00:18:50;;;;;;;12.90;3.40;;;;;;;12.12;60.56;95675.89;108390;1277;22652;-74
2024/03/31 00:21:21;;;;;;;14.40;2.70;;;;;;;12.07;60.80;95667.47;108336;1275;22549;-74
2024/03/31 00:23:52;;;;;;;13.70;2.80;;;;;;;12.01;60.84;95668.03;108395;1278;23828;-74
2024/03/31 00:26:26;;;;;;;13.90;3.10;;;;;;;11.92;60.82;95661.16;108385;1278;22638;-74
2024/03/31 00:28:57;;;;;;;14.90;3.20;;;;;;;11.90;61.02;95659.47;108280;1272;25469;-74
2024/03/31 00:31:28;;;;;;;17.10;3.60;;;;;;;11.98;61.06;95649.90;108401;1278;22714;-74
2024/03/31 00:33:59;;;;;;;11.80;2.70;;;;;;;11.92;60.99;95651.56;108348;1278;26982;-74
2024/03/31 00:36:31;;;;;;;17.90;3.00;;;;;;;11.86;61.22;95645.19;108286;1272;22533;-74
2024/03/31 00:39:05;;;;;;;19.40;3.10;;;;;;;11.84;61.25;95648.50;108335;1278;22544;-74
2024/03/31 00:41:37;;;;;;;16.80;3.60;;;;;;;11.84;61.19;95645.69;108395;1271;22539;-74
2024/03/31 00:44:10;;;;;;;14.70;3.60;;;;;;;11.88;61.22;95638.38;108472;1278;23298;-73
2024/03/31 00:46:41;;;;;;;22.90;3.60;;;;;;;11.89;61.10;95638.81;108350;1272;23664;-74
2024/03/31 00:49:14;;;;;;;16.50;3.10;;;;;;;11.92;60.98;95638.44;108383;1271;25409;-73
2024/03/31 00:51:50;;;;;;;19.30;3.80;;;;;;;11.87;60.89;95633.78;108261;1271;22554;-74
2024/03/31 00:54:26;;;;;;;13.60;2.80;;;;;;;11.89;60.95;95630.88;108362;1278;22549;-74
2024/03/31 00:56:57;;;;;;;19.40;3.20;;;;;;;11.95;60.97;95633.56;108348;1278;22569;-74
2024/03/31 00:59:30;;;;;;;13.60;2.60;;;;;;;11.97;60.90;95625.27;108297;1278;22524;-74
2024/03/31 01:02:03;;;;;;;16.30;3.30;;;;;;;11.99;60.84;95622.25;108377;1278;22533;-73
2024/03/31 01:04:33;;;;;;;13.20;3.90;;;;;;;11.91;60.77;95619.23;108337;1278;22536;-74
2024/03/31 01:07:12;;;;;;;19.50;3.80;;;;;;;11.83;60.94;95615.55;108241;1278;23821;-74
2024/03/31 01:09:45;;;;;;;16.20;3.10;;;;;;;11.85;61.07;95615.27;108384;1271;22539;-74
2024/03/31 01:12:18;;;;;;;22.80;3.70;;;;;;;11.89;60.97;95612.16;108429;1277;22525;-74
2024/03/31 01:14:52;;;;;;;20.10;3.80;;;;;;;11.94;61.03;95616.75;108360;1271;22588;-74
2024/03/31 01:17:27;;;;;;;12.00;3.20;;;;;;;11.93;60.92;95612.38;108364;1277;22540;-74
2024/03/31 01:20:03;;;;;;;15.80;3.00;;;;;;;11.97;60.90;95613.42;108428;1272;25430;-74
2024/03/31 01:22:36;;;;;;;20.00;4.30;;;;;;;12.05;60.87;95610.06;108367;1271;22535;-74
2024/03/31 01:25:11;;;;;;;15.10;3.00;;;;;;;12.14;60.85;95610.48;108392;1277;22541;-74
2024/03/31 01:27:44;;;;;;;13.40;2.60;;;;;;;12.17;60.76;95599.69;108379;1277;22518;-74
2024/03/31 01:30:14;;;;;;;12.90;2.70;;;;;;;12.17;60.79;95604.59;108323;1277;24364;-74
2024/03/31 01:32:46;;;;;;;18.60;3.30;;;;;;;12.16;60.80;95600.63;108416;1277;22539;-74
2024/03/31 01:35:17;;;;;;;14.90;2.80;;;;;;;12.24;60.73;95597.91;108362;1260;27023;-74
2024/03/31 01:37:53;;;;;;;16.40;3.10;;;;;;;12.31;60.63;95601.41;108342;1277;22530;-74
2024/03/31 01:40:23;;;;;;;16.70;2.70;;;;;;;12.46;60.57;95595.86;108413;1277;23008;-74
2024/03/31 01:42:56;;;;;;;10.00;2.00;;;;;;;12.51;60.36;95595.60;108442;1277;22635;-74
2024/03/31 01:45:37;;;;;;;11.80;3.00;;;;;;;12.66;60.27;95595.08;108331;1277;22678;-74
2024/03/31 01:48:12;;;;;;;10.40;1.80;;;;;;;12.99;59.85;95595.88;108422;1272;22641;-74
2024/03/31 01:50:42;;;;;;;13.30;2.10;;;;;;;13.29;59.25;95592.77;108369;1277;22543;-74
2024/03/31 01:53:16;;;;;;;7.30;2.80;;;;;;;13.47;58.75;95596.91;108480;1277;22521;-74
2024/03/31 01:55:47;;;;;;;11.60;2.70;;;;;;;13.68;58.28;95598.84;108409;1277;22584;-74
2024/03/31 01:58:20;;;;;;;5.60;1.90;;;;;;;13.87;57.82;95594.65;108401;1277;22523;-74
2024/03/31 02:00:51;;;;;;;9.60;2.00;;;;;;;13.97;57.28;95593.63;108410;1271;22534;-74
2024/03/31 02:03:25;;;;;;;10.00;2.20;;;;;;;14.01;56.90;95587.45;108328;1277;22545;-73
2024/03/31 02:05:56;;;;;;;9.90;1.70;;;;;;;14.03;56.72;95590.80;108313;1277;23062;-74
2024/03/31 02:08:27;;;;;;;11.20;3.20;;;;;;;14.09;56.57;95586.61;108364;1272;25245;-74
2024/03/31 02:11:02;;;;;;;8.20;1.90;;;;;;;14.16;56.19;95584.88;108407;1278;25294;-74
2024/03/31 02:13:35;;;;;;;8.40;2.00;;;;;;;14.24;56.01;95585.95;108387;1278;22522;-74
2024/03/31 02:16:06;;;;;;;5.60;1.40;;;;;;;14.32;55.73;95580.89;108239;1276;22529;-74
2024/03/31 02:18:39;;;;;;;5.50;1.70;;;;;;;14.44;55.58;95578.61;108366;1278;22529;-74
2024/03/31 02:21:10;;;;;;;8.40;2.00;;;;;;;14.58;55.14;95574.00;108328;1271;22529;-74
2024/03/31 02:23:41;;;;;;;6.80;1.60;;;;;;;14.65;54.63;95579.27;108364;1278;22662;-74
2024/03/31 02:26:14;;;;;;;7.40;1.90;;;;;;;14.77;54.37;95576.55;108373;1276;22527;-74
2024/03/31 02:28:47;;;;;;;8.40;1.60;;;;;;;14.87;54.07;95581.44;108339;1276;22521;-74
2024/03/31 02:31:20;;;;;;;7.40;1.80;;;;;;;14.88;53.91;95583.63;108328;1276;24226;-74
2024/03/31 02:33:51;;;;;;;7.30;1.50;;;;;;;14.85;53.89;95578.64;108367;1271;25309;-74
2024/03/31 02:36:24;;;;;;;18.60;2.80;;;;;;;14.95;53.72;95577.63;108290;1271;23486;-74
2024/03/31 02:38:59;;;;;;;14.00;3.20;;;;;;;14.97;53.53;95577.14;108371;1278;25357;-74
2024/03/31 02:41:29;;;;;;;8.40;1.50;;;;;;;14.98;53.41;95578.85;108364;1272;25354;-74
2024/03/31 02:44:05;;;;;;;7.20;1.70;;;;;;;14.99;53.32;95582.54;108383;1278;22581;-74
2024/03/31 02:46:35;;;;;;;8.80;1.70;;;;;;;14.95;53.20;95582.65;108363;1278;25245;-74
2024/03/31 02:49:08;;;;;;;13.10;2.50;;;;;;;15.00;53.02;95580.05;108383;1254;22551;-74
2024/03/31 02:51:41;;;;;;;10.30;2.10;;;;;;;14.97;52.97;95579.73;108260;1273;26465;-74
2024/03/31 02:54:12;;;;;;;5.30;1.90;;;;;;;14.87;52.97;95579.93;108332;1271;22519;-74
2024/03/31 02:56:43;;;;;;;9.70;2.10;;;;;;;14.78;53.04;95577.14;108358;1278;22688;-74
2024/03/31 02:59:15;;;;;;;9.30;1.80;;;;;;;14.74;53.03;95575.52;108382;1279;22515;-74
2024/03/31 03:01:49;;;;;;;8.20;1.90;;;;;;;14.79;52.97;95569.53;108394;1279;22716;-74
2024/03/31 03:04:22;;;;;;;8.20;1.70;;;;;;;14.94;52.93;95566.73;108345;1276;22930;-74
2024/03/31 03:06:52;;;;;;;5.40;1.10;;;;;;;15.00;52.59;95562.30;108298;1256;22564;-74
2024/03/31 03:09:24;;;;;;;7.20;1.60;;;;;;;14.99;52.42;95556.63;108399;1277;23800;-74
2024/03/31 03:11:59;;;;;;;6.90;1.50;;;;;;;15.03;52.41;95561.70;108419;1278;25429;-74
2024/03/31 03:14:30;;;;;;;6.80;1.60;;;;;;;14.99;52.35;95554.34;108364;1278;22519;-74
2024/03/31 03:17:07;;;;;;;6.80;2.10;;;;;;;14.96;52.30;95548.45;108369;1278;22768;-74
2024/03/31 03:19:40;;;;;;;8.40;1.70;;;;;;;15.03;52.14;95551.24;108380;1279;22528;-74
2024/03/31 03:22:14;;;;;;;10.10;2.30;;;;;;;15.10;52.01;95557.83;108318;1278;23104;-74
2024/03/31 03:24:53;;;;;;;7.80;2.10;;;;;;;15.14;51.89;95551.06;108443;1278;24177;-74
2024/03/31 03:27:24;;;;;;;8.20;2.10;;;;;;;15.23;51.67;95548.25;108379;1277;22638;-74
2024/03/31 03:30:05;;;;;;;11.00;2.20;;;;;;;15.30;51.41;95544.85;108362;1271;22775;-74
2024/03/31 03:32:36;;;;;;;11.80;2.00;;;;;;;15.35;51.35;95544.88;108382;1271;22847;-74
2024/03/31 03:35:10;;;;;;;7.20;1.60;;;;;;;15.42;51.11;95538.84;108260;1279;24164;-74
2024/03/31 03:37:42;;;;;;;12.60;1.90;;;;;;;15.45;50.81;95537.70;108327;1279;22593;-74
2024/03/31 03:40:14;;;;;;;9.60;1.90;;;;;;;15.43;50.67;95532.86;108341;1278;22516;-74
2024/03/31 03:42:49;;;;;;;7.80;2.10;;;;;;;15.41;50.65;95533.33;108378;1277;22603;-74
2024/03/31 03:45:23;;;;;;;6.70;1.60;;;;;;;15.53;50.41;95529.46;108314;1278;24257;-74
2024/03/31 03:47:54;;;;;;;7.00;2.20;;;;;;;15.57;50.26;95524.02;108380;1271;23828;-74
2024/03/31 03:50:25;;;;;;;9.00;1.60;;;;;;;15.54;50.19;95523.32;108361;1277;22567;-73
2024/03/31 03:52:56;;;;;;;8.00;2.30;;;;;;;15.45;50.29;95524.95;108333;1271;22563;-74
2024/03/31 03:55:29;;;;;;;7.10;2.20;;;;;;;15.37;50.39;95522.89;108371;1278;23893;-74
2024/03/31 03:58:03;;;;;;;5.10;1.50;;;;;;;15.25;50.51;95528.84;108363;1278;22545;-73
2024/03/31 04:00:34;;;;;;;7.80;2.00;;;;;;;15.10;50.60;95530.31;108354;1279;22664;-74
2024/03/31 04:03:07;;;;;;;4.20;1.30;;;;;;;15.04;50.64;95531.15;108395;1278;23663;-74
2024/03/31 04:05:54;;;;;;;8.80;2.10;;;;;;;15.00;50.69;95534.61;108291;1271;22541;-73
2024/03/31 04:08:25;;;;;;;6.80;1.60;;;;;;;14.99;50.79;95535.04;108332;1278;22519;-74
2024/03/31 04:10:58;;;;;;;10.50;2.10;;;;;;;14.97;50.86;95535.81;108377;1271;22520;-74
2024/03/31 04:13:29;;;;;;;11.70;2.10;;;;;;;14.87;51.04;95542.86;108298;1279;23322;-74
2024/03/31 04:16:04;;;;;;;9.40;2.20;;;;;;;14.72;51.10;95544.98;108337;1271;24029;-74
2024/03/31 04:18:35;;;;;;;7.10;1.60;;;;;;;14.62;51.28;95543.34;108343;1271;22521;-74
2024/03/31 04:21:12;;;;;;;5.80;2.00;;;;;;;14.51;51.62;95549.13;108327;1272;24227;-73
2024/03/31 04:23:43;;;;;;;5.20;1.50;;;;;;;14.19;52.06;95552.48;108381;1277;22532;-73
2024/03/31 04:26:14;;;;;;;6.50;2.30;;;;;;;13.90;52.78;95557.59;108387;1278;22992;-73
2024/03/31 04:28:52;;;;;;;5.30;1.30;;;;;;;13.63;53.23;95560.08;108367;1279;24332;-73
2024/03/31 04:31:24;;;;;;;6.10;1.70;;;;;;;13.44;53.90;95556.17;108453;1278;22540;-73
2024/03/31 04:33:55;;;;;;;8.50;1.80;;;;;;;13.51;54.08;95564.72;108335;1279;23786;-74
2024/03/31 04:36:28;;;;;;;5.00;1.40;;;;;;;13.57;54.47;95568.16;108293;1278;22564;-73
2024/03/31 04:39:04;;;;;;;8.40;1.60;;;;;;;13.55;54.55;95567.61;108372;1278;22672;-74
2024/03/31 04:41:39;;;;;;;6.20;1.60;;;;;;;13.52;54.58;95570.08;108331;1278;24999;-74
2024/03/31 04:44:12;;;;;;;10.40;2.10;;;;;;;13.46;54.77;95570.77;108390;1271;23808;-73
2024/03/31 04:46:50;;;;;;;10.50;2.00;;;;;;;13.43;54.79;95566.92;108365;1278;22538;-74
2024/03/31 04:49:22;;;;;;;8.60;1.80;;;;;;;13.48;54.85;95563.14;108340;1279;22522;-74
2024/03/31 04:51:53;;;;;;;10.60;2.30;;;;;;;13.50;54.83;95557.89;108298;1278;23016;-73
2024/03/31 04:54:30;;;;;;;6.50;1.50;;;;;;;13.54;54.88;95564.50;108338;1270;22522;-74
2024/03/31 04:57:00;;;;;;;11.50;2.20;;;;;;;13.58;54.82;95561.95;108348;1278;25433;-74
2024/03/31 04:59:32;;;;;;;10.30;1.50;;;;;;;13.71;54.64;95559.09;108323;1279;23863;-74
2024/03/31 05:02:07;;;;;;;11.80;1.90;;;;;;;13.81;54.75;95561.44;108377;1278;23839;-74
2024/03/31 05:04:38;;;;;;;11.30;2.10;;;;;;;13.79;54.80;95561.61;108360;1278;24273;-73
2024/03/31 05:07:09;;;;;;;6.10;1.60;;;;;;;13.71;54.96;95563.27;108269;1279;24246;-74
2024/03/31 05:09:41;;;;;;;7.70;1.50;;;;;;;13.69;55.13;95565.88;108239;1278;22550;-74
2024/03/31 05:12:11;;;;;;;7.40;1.60;;;;;;;13.61;55.27;95566.38;108381;1271;22554;-74
2024/03/31 05:14:44;;;;;;;7.80;1.90;;;;;;;13.72;55.37;95564.38;108369;1259;22918;-74
2024/03/31 05:17:17;;;;;;;8.90;1.70;;;;;;;13.86;55.59;95570.38;108365;1271;22579;-74
2024/03/31 05:19:51;;;;;;;5.70;1.60;;;;;;;13.85;55.85;95569.98;108311;1273;23280;-74
2024/03/31 05:22:25;;;;;;;7.40;1.70;;;;;;;14.05;55.51;95570.79;108362;1274;25136;-74
2024/03/31 05:24:57;;;;;;;7.60;1.70;;;;;;;14.31;55.34;95575.01;108384;1272;22569;-74
2024/03/31 05:27:28;;;;;;;8.20;1.70;;;;;;;14.60;55.25;95578.77;108306;1278;22541;-74
2024/03/31 05:29:58;;;;;;;9.60;2.10;;;;;;;14.90;54.98;95574.46;108384;1278;22547;-74
2024/03/31 05:32:33;;;;;;;7.10;1.60;;;;;;;15.24;54.78;95565.74;108373;1278;22527;-74
2024/03/31 05:35:05;;;;;;;5.70;1.60;;;;;;;15.61;54.64;95567.88;108309;1271;22547;-74
2024/03/31 05:37:39;;;;;;;10.40;2.20;;;;;;;15.97;54.87;95568.61;108376;1278;22632;-73
2024/03/31 05:40:20;;;;;;;6.20;2.20;;;;;;;16.34;54.40;95562.70;108410;1278;24266;-73
2024/03/31 05:42:51;;;;;;;7.50;2.10;;;;;;;16.66;53.41;95563.58;108355;1278;23863;-73
2024/03/31 05:45:24;;;;;;;7.70;2.00;;;;;;;16.76;52.47;95568.30;108374;1276;25305;-73
2024/03/31 05:47:55;;;;;;;9.00;2.20;;;;;;;16.92;52.08;95572.67;108373;1270;22529;-74
2024/03/31 05:50:26;;;;;;;7.00;2.00;;;;;;;17.06;51.60;95577.78;108320;1278;26031;-73
2024/03/31 05:53:02;;;;;;;3.50;1.70;;;;;;;17.14;51.17;95571.55;108376;1277;22555;-73
2024/03/31 05:55:36;;;;;;;9.40;2.00;;;;;;;17.19;50.48;95569.41;108434;1278;22518;-73
2024/03/31 05:58:07;;;;;;;6.60;2.00;;;;;;;17.20;50.17;95567.52;108368;1277;22603;-73
2024/03/31 06:00:38;;;;;;;7.90;2.00;;;;;;;17.38;50.12;95566.46;108406;1277;25312;-74
2024/03/31 06:03:11;;;;;;;11.40;2.50;;;;;;;17.73;50.09;95565.67;108443;1254;22571;-74
2024/03/31 06:05:42;;;;;;;6.80;2.10;;;;;;;18.00;50.01;95568.83;107936;1271;347893;-74
2024/03/31 06:08:12;;;;;;;7.80;1.80;;;;;;;18.31;49.97;95571.66;108355;1277;22549;-74
2024/03/31 06:10:43;;;;;;;5.80;2.50;;;;;;;18.85;49.94;95579.02;108366;1277;22538;-74
2024/03/31 06:13:14;;;;;;;7.40;2.20;;;;;;;19.47;48.88;95571.26;108363;1277;22563;-74
2024/03/31 06:15:49;;;;;;;8.10;2.20;;;;;;;20.12;48.74;95568.30;108350;1277;22531;-74
2024/03/31 06:18:19;;;;;;;8.50;2.20;;;;;;;20.77;48.01;95568.40;108399;1270;22557;-74
2024/03/31 06:20:51;;;;;;;12.90;2.50;;;;;;;21.34;47.19;95561.95;108088;1271;24184;-74
2024/03/31 06:23:24;;;;;;;7.20;1.90;;;;;;;21.97;47.09;95561.33;108356;1271;22521;-74
2024/03/31 06:26:02;;;;;;;9.00;2.60;;;;;;;22.41;45.90;95563.20;108355;1271;22531;-74
2024/03/31 06:28:33;;;;;;;9.90;2.70;;;;;;;21.98;44.52;95562.34;108387;1271;23863;-74
2024/03/31 06:31:07;;;;;;;10.20;2.40;;;;;;;21.45;44.39;95564.75;108390;1271;22548;-74
2024/03/31 06:33:38;;;;;;;12.00;2.80;;;;;;;21.38;45.02;95568.63;108404;1277;22634;-74
2024/03/31 06:36:11;;;;;;;11.40;2.60;;;;;;;21.94;45.46;95573.89;107940;1271;22594;-74
2024/03/31 06:38:42;;;;;;;5.60;1.90;;;;;;;22.66;45.47;95584.28;108296;1271;22549;-74
2024/03/31 06:41:15;;;;;;;8.30;2.20;;;;;;;23.32;44.38;95578.58;108396;1271;22740;-74
2024/03/31 06:43:46;;;;;;;7.50;2.10;;;;;;;23.60;43.73;95576.52;108369;1272;24229;-74
2024/03/31 06:46:19;;;;;;;6.60;2.00;;;;;;;23.60;42.98;95571.50;108328;1271;22514;-74
2024/03/31 06:48:52;;;;;;;8.10;2.30;;;;;;;23.68;42.91;95567.86;108329;1278;22538;-74
2024/03/31 06:51:23;;;;;;;8.40;1.90;;;;;;;24.32;42.80;95573.23;108221;1276;22527;-74
2024/03/31 06:53:54;;;;;;;8.10;2.40;;;;;;;24.94;41.89;95568.25;108308;1279;22529;-74
2024/03/31 06:56:25;;;;;;;10.80;3.30;;;;;;;25.31;41.10;95565.95;108361;1278;22543;-73
2024/03/31 06:58:56;;;;;;;7.50;2.30;;;;;;;25.31;39.91;95562.77;108381;1271;24378;-74
2024/03/31 07:01:27;;;;;;;9.60;2.40;;;;;;;24.86;39.29;95561.02;108356;1278;22861;-74
2024/03/31 07:04:00;;;;;;;8.40;2.70;;;;;;;24.67;39.36;95555.38;108324;1271;22526;-75
2024/03/31 07:06:31;;;;;;;8.30;2.40;;;;;;;24.84;39.19;95549.10;108248;1278;26545;-74
2024/03/31 07:09:04;;;;;;;9.70;3.00;;;;;;;25.10;39.26;95540.27;108367;1278;24286;-73
2024/03/31 07:11:37;;;;;;;7.00;2.30;;;;;;;25.89;38.99;95538.16;108324;1272;22513;-74
2024/03/31 07:14:13;;;;;;;11.90;2.60;;;;;;;25.99;37.90;95533.48;108318;1272;22568;-74
2024/03/31 07:16:44;;;;;;;9.20;2.80;;;;;;;25.99;37.54;95536.20;108299;1278;25211;-75
2024/03/31 07:19:15;;;;;;;6.70;2.50;;;;;;;26.22;36.58;95533.40;108294;1271;24266;-74
2024/03/31 07:21:48;;;;;;;7.50;2.50;;;;;;;25.98;36.13;95528.46;108337;1278;22516;-74
2024/03/31 07:24:19;;;;;;;9.50;3.30;;;;;;;26.15;35.74;95523.93;108353;1271;23987;-74
2024/03/31 07:26:52;;;;;;;9.30;3.10;;;;;;;25.58;34.91;95524.79;108315;1271;23742;-74
2024/03/31 07:29:24;;;;;;;9.20;2.30;;;;;;;24.80;34.92;95526.73;108371;1276;22560;-74
2024/03/31 07:31:54;;;;;;;10.50;2.80;;;;;;;24.43;35.11;95524.84;108369;1278;22522;-74
2024/03/31 07:34:26;;;;;;;7.60;2.20;;;;;;;24.55;35.93;95527.80;108259;1279;22564;-74
2024/03/31 07:36:57;;;;;;;10.60;2.50;;;;;;;24.97;35.79;95529.42;108338;1272;24248;-74
2024/03/31 07:39:32;;;;;;;7.80;2.40;;;;;;;25.10;35.12;95526.66;108166;1271;22539;-74
2024/03/31 07:42:03;;;;;;;13.00;2.60;;;;;;;25.41;34.90;95530.29;108305;1276;22664;-75
2024/03/31 07:44:34;;;;;;;10.40;2.60;;;;;;;26.54;34.88;95535.17;108203;1271;22525;-75
2024/03/31 07:47:07;;;;;;;11.40;3.20;;;;;;;27.79;33.59;95538.90;108056;1276;22560;-75
2024/03/31 07:49:45;;;;;;;13.50;3.50;;;;;;;28.44;32.56;95548.45;108112;1278;22724;-76
2024/03/31 07:52:22;;;;;;;10.70;2.70;;;;;;;28.96;32.14;95555.17;108249;1271;26612;-80
2024/03/31 07:54:53;;;;;;;8.50;2.60;;;;;;;29.77;32.13;95555.27;108236;1277;24920;-80
2024/03/31 07:57:25;;;;;;;13.30;2.20;;;;;;;30.54;31.10;95554.95;108293;1278;23093;-77
2024/03/31 07:59:56;;;;;;;12.50;2.50;;;;;;;30.34;28.40;95557.95;108350;1274;22587;-78
2024/03/31 08:02:29;;;;;;;10.40;2.50;;;;;;;30.08;28.50;95561.51;108341;1278;22825;-78
2024/03/31 08:05:01;;;;;;;10.30;2.40;;;;;;;29.93;28.09;95562.44;108210;1271;22561;-69
2024/03/31 08:07:31;;;;;;;11.40;2.70;;;;;;;29.69;28.17;95563.83;108369;1277;22685;-69
2024/03/31 08:10:03;;;;;;;10.90;2.90;;;;;;;30.23;28.47;95561.21;108365;1277;24248;-71
2024/03/31 08:12:35;;;;;;;10.60;3.10;;;;;;;30.11;26.95;95564.65;108213;1271;25515;-72
2024/03/31 08:15:07;;;;;;;12.60;3.10;;;;;;;30.17;27.79;95564.57;108333;1278;24206;-72
2024/03/31 08:17:38;;;;;;;12.00;2.50;;;;;;;30.73;27.69;95559.45;108351;1277;22565;-72
2024/03/31 08:20:10;;;;;;;12.10;2.80;;;;;;;30.77;26.84;95557.09;108372;1277;22934;-72
2024/03/31 08:22:41;;;;;;;11.50;2.40;;;;;;;30.87;27.04;95565.52;108300;1272;23223;-72
2024/03/31 08:25:14;;;;;;;12.80;3.40;;;;;;;31.37;26.90;95565.05;108330;1276;24221;-72
2024/03/31 08:27:51;;;;;;;14.70;3.10;;;;;;;31.89;26.54;95562.85;108360;1271;22551;-72
2024/03/31 08:30:23;;;;;;;9.90;2.70;;;;;;;31.96;26.10;95552.41;108324;1278;22533;-72
2024/03/31 08:32:54;;;;;;;14.40;2.90;;;;;;;31.71;25.95;95548.45;108371;1276;22952;-72
2024/03/31 08:35:26;;;;;;;16.20;2.80;;;;;;;31.95;26.39;95542.90;108315;1260;22505;-73
2024/03/31 08:37:57;;;;;;;15.80;2.90;;;;;;;32.24;26.02;95541.90;108551;1276;25251;-72
2024/03/31 08:40:36;;;;;;;12.50;2.80;;;;;;;32.48;25.83;95540.65;108328;1277;22554;-72
2024/03/31 08:43:09;;;;;;;18.30;4.20;;;;;;;31.89;23.77;95534.17;108360;1278;22600;-72
2024/03/31 08:45:42;;;;;;;15.00;3.50;;;;;;;30.82;23.70;95525.55;108266;1278;22566;-72
2024/03/31 08:48:16;;;;;;;18.50;3.80;;;;;;;29.58;22.71;95522.86;108034;1278;23890;-71
2024/03/31 08:50:51;;;;;;;23.50;4.70;;;;;;;28.62;23.45;95517.02;108226;1271;22523;-72
2024/03/31 08:53:23;;;;;;;16.10;4.00;;;;;;;28.21;24.23;95516.58;108316;1272;22894;-72
2024/03/31 08:55:57;;;;;;;17.00;3.70;;;;;;;27.58;24.11;95523.53;108104;1271;23025;-73
2024/03/31 08:58:28;;;;;;;19.40;4.20;;;;;;;26.44;26.02;95520.48;108199;1271;22521;-73
2024/03/31 09:01:02;;;;;;;21.70;4.00;;;;;;;25.94;26.14;95512.84;108244;1276;22559;-73
2024/03/31 09:03:39;;;;;;;17.60;3.90;;;;;;;25.27;26.41;95509.16;108285;1271;24927;-72
2024/03/31 09:06:14;;;;;;;19.50;4.00;;;;;;;24.75;26.84;95506.31;108301;1277;22538;-72
2024/03/31 09:08:45;;;;;;;22.70;4.90;;;;;;;24.52;27.32;95496.61;108290;1271;24263;-72
2024/03/31 09:11:16;;;;;;;17.30;3.80;;;;;;;24.38;28.37;95486.39;108045;1258;27417;-72
2024/03/31 09:13:49;;;;;;;15.70;3.80;;;;;;;24.18;29.02;95473.53;108214;1272;23368;-72
2024/03/31 09:16:21;;;;;;;14.00;3.50;;;;;;;23.90;29.00;95470.45;107937;1276;22572;-73
2024/03/31 09:18:57;;;;;;;20.50;4.60;;;;;;;23.50;29.26;95467.05;108266;1271;23808;-72
2024/03/31 09:21:31;;;;;;;16.30;4.30;;;;;;;23.17;29.72;95470.80;108051;1273;23987;-72
2024/03/31 09:24:02;;;;;;;24.60;3.70;;;;;;;22.98;30.37;95469.48;108233;1271;25112;-73
2024/03/31 09:26:36;;;;;;;14.20;3.20;;;;;;;22.97;30.45;95464.39;108381;1276;22522;-72
2024/03/31 09:29:09;;;;;;;14.80;3.30;;;;;;;22.89;32.31;95461.75;108440;1272;25142;-72
2024/03/31 09:31:43;;;;;;;14.20;3.60;;;;;;;22.62;32.75;95462.31;108389;1272;22528;-72
2024/03/31 09:34:15;;;;;;;14.90;3.10;;;;;;;22.37;33.75;95472.45;108352;1271;22535;-72
2024/03/31 09:36:46;;;;;;;9.40;3.10;;;;;;;22.07;34.13;95465.31;108326;1277;45601;-72
2024/03/31 09:39:27;;;;;;;12.00;2.50;;;;;;;21.80;35.11;95471.96;108428;1271;22525;-72
2024/03/31 09:42:03;;;;;;;11.00;3.40;;;;;;;21.68;35.48;95474.98;108423;1277;22551;-72
2024/03/31 09:44:37;;;;;;;13.40;3.10;;;;;;;21.70;35.37;95479.23;108424;1277;25269;-72
2024/03/31 09:47:27;;;;;;;13.20;3.00;;;;;;;21.81;35.52;95474.97;108398;1255;22529;-71
2024/03/31 09:50:13;;;;;;;12.50;2.60;;;;;;;21.93;35.25;95473.17;108451;1277;25429;-75
2024/03/31 09:52:51;;;;;;;10.10;2.90;;;;;;;21.87;34.87;95466.45;108368;1277;25896;-74
2024/03/31 09:55:28;;;;;;;14.60;3.60;;;;;;;21.83;35.82;95463.95;109373;1271;22680;-75
2024/03/31 09:58:00;;;;;;;16.00;3.50;;;;;;;22.07;35.75;95463.38;108399;1277;22537;-75
2024/03/31 10:00:35;;;;;;;18.50;3.80;;;;;;;22.26;35.72;95466.55;108322;1272;23815;-75
2024/03/31 10:03:12;;;;;;;18.40;3.70;;;;;;;22.39;35.35;95468.98;108246;1277;22537;-75
2024/03/31 10:05:44;;;;;;;20.50;3.70;;;;;;;22.45;35.35;95468.68;108330;1277;22894;-74
2024/03/31 10:08:16;;;;;;;21.00;3.70;;;;;;;22.56;35.70;95461.38;108364;1277;25333;-75
2024/03/31 10:10:55;;;;;;;21.80;4.10;;;;;;;22.58;35.09;95460.92;108338;1275;24060;-75
2024/03/31 10:13:28;;;;;;;20.40;4.60;;;;;;;22.49;34.49;95461.21;108353;1277;23807;-75
2024/03/31 10:16:05;;;;;;;21.10;4.50;;;;;;;22.35;33.74;95463.65;108334;1277;22655;-75
2024/03/31 10:18:41;;;;;;;19.60;4.60;;;;;;;22.21;33.48;95467.77;108370;1271;22544;-74
2024/03/31 10:21:17;;;;;;;23.60;4.70;;;;;;;22.23;33.49;95471.47;108234;1276;22545;-75
2024/03/31 10:23:51;;;;;;;24.50;4.80;;;;;;;22.42;33.40;95471.38;108356;1272;23987;-75
2024/03/31 10:26:23;;;;;;;30.90;4.80;;;;;;;22.78;33.48;95460.34;108348;1277;25018;-75
2024/03/31 10:28:55;;;;;;;33.80;7.20;;;;;;;23.20;33.36;95457.73;108328;1277;24007;-74
2024/03/31 10:31:29;;;;;;;42.50;7.90;;;;;;;23.42;32.18;95446.27;108255;1272;25306;-74
2024/03/31 10:34:11;;;;;;;27.10;5.10;;;;;;;23.58;31.76;95447.88;108535;1276;22515;-75
2024/03/31 10:36:45;;;;;;;31.40;6.40;;;;;;;23.77;31.46;95439.33;108374;1277;83737;-74
2024/03/31 10:39:21;;;;;;;42.90;6.70;;;;;;;23.68;29.53;95437.27;108414;1277;22527;-74
2024/03/31 10:41:53;;;;;;;39.60;7.40;;;;;;;23.62;30.02;95441.16;108442;1278;22539;-75
2024/03/31 10:44:26;;;;;;;46.00;8.90;;;;;;;23.57;29.37;95437.23;108365;1274;22544;-75
2024/03/31 10:46:58;;;;;;;44.40;7.40;;;;;;;23.56;29.39;95425.15;108412;1278;22556;-74
2024/03/31 10:49:39;;;;;;;36.90;7.50;;;;;;;23.53;29.61;95426.24;108450;1270;24237;-74
2024/03/31 10:52:19;;;;;;;59.10;9.90;;;;;;;23.30;28.64;95429.14;108467;1277;25416;-72
2024/03/31 10:54:54;;;;;;;51.90;8.70;;;;;;;23.17;28.91;95438.96;108447;1271;22780;-75
2024/03/31 10:57:35;;;;;;;38.20;6.90;;;;;;;23.27;28.92;95449.70;108421;1274;25415;-75
2024/03/31 11:00:18;;;;;;;45.30;8.80;;;;;;;23.40;28.73;95442.89;108495;1278;22697;-72
2024/03/31 11:02:52;;;;;;;49.90;8.20;;;;;;;23.44;28.97;95436.92;108444;1272;22579;-72
2024/03/31 11:05:26;;;;;;;46.80;9.10;;;;;;;23.57;29.17;95436.98;108358;1277;24867;-72
2024/03/31 11:08:02;;;;;;;41.40;8.90;;;;;;;23.78;29.97;95442.66;108414;1271;24218;-72
2024/03/31 11:10:37;;;;;;;57.50;11.40;;;;;;;23.95;29.19;95443.14;108443;1271;23814;-72
2024/03/31 11:13:09;;;;;;;65.30;11.80;;;;;;;23.92;28.40;95438.58;108443;1276;22534;-72
2024/03/31 11:15:42;;;;;;;60.90;11.00;;;;;;;23.93;28.06;95438.60;108356;1278;25263;-72
2024/03/31 11:18:16;;;;;;;66.50;12.20;;;;;;;23.78;26.16;95440.34;108352;1278;25424;-74
2024/03/31 11:20:47;;;;;;;60.10;10.60;;;;;;;23.63;25.88;95451.91;108362;1277;23076;-74
2024/03/31 11:23:20;;;;;;;40.30;8.10;;;;;;;23.51;25.97;95439.92;108199;1278;22654;-74
2024/03/31 11:25:52;;;;;;;42.90;8.20;;;;;;;23.49;26.44;95424.62;108273;1273;27200;-74
2024/03/31 11:28:27;;;;;;;54.20;10.50;;;;;;;23.54;26.55;95420.68;108473;1271;22527;-74
2024/03/31 11:31:00;;;;;;;57.90;11.80;;;;;;;23.65;27.07;95419.66;108267;1278;26568;-75
2024/03/31 11:33:35;;;;;;;50.30;10.40;;;;;;;23.70;26.89;95420.19;108293;1276;22562;-74
2024/03/31 11:36:08;;;;;;;53.50;10.90;;;;;;;23.72;26.42;95408.98;108105;1278;24251;-74
2024/03/31 11:38:43;;;;;;;53.70;10.20;;;;;;;23.70;26.26;95401.64;109570;1271;22529;-75
2024/03/31 11:41:16;;;;;;;61.20;10.80;;;;;;;23.74;26.40;95392.71;108377;1277;22562;-74
2024/03/31 11:43:53;;;;;;;48.50;9.20;;;;;;;23.81;26.78;95396.72;108832;1278;23863;-75
2024/03/31 11:46:31;;;;;;;57.10;10.70;;;;;;;23.89;26.73;95401.02;108386;1277;22595;-75